logo
Search for airport 
image banner adimage banner adimage banner ad
image banner ad

FAEC - Umtshezi Municipality

Located in Estcourt, South Africa

ICAO - FAEC, IATA -

Data provided by Airmate  

General information

Coordinates: S29°2'50" E29°54'38"
Elevation is 4262 feet MSL.
Magnetic variation is -25° East
Rated:
View ratings:
[VIEW]
View others Airports in Kwazulu-Natal

Operational data

Special qualification required
Current time UTC:
Current local time:
Weather at : - ( 0 km )
METAR: CZSJ 241912Z AUTO 14013G23KT 090V160 9SM -RA SCT048 SCT081 21/15 A2938 RMK PRESFR ICE MISG SLP952 DENSITY ALT 2500FT
View NOTAMs / SUP AIP / TFR affecting this airport [VIEW]
Communications frequencies: [VIEW]

Runways:

RWY identifierQFULength (ft)Width (ft)SurfaceLDA (ft)
0140260UNK
1940260UNK
1400UNK
3200UNK

Airport contact information

Address: Estcourt South Africa

Satellite view of FAEC